Buoy 43528

sailwx.info

Track history (hours):
 
Tides and Currents Weather Stations Pressure Air Temp Water Temp Dewpoint Dewpoint Depression Visibility Wind Speed Wind Dir Waves Ship Positions

Drifting buoy 43528

Last reported at 2014-Nov-23 00:00 UTC. Time now 2014-Nov-23 04:44 UTC.
Position N 12°33' W 132°37'.

Water temperature 26.5 ° C

Date/timePositionNaut miles runAvg speedWind from/ knotsBaromVisibWave heightAir tempDewpointWater temp
2014-Nov-23 00:00N 12°33' W 132°37'2 0.9 26.5
2014-Nov-22 22:00N 12°32' W 132°35'1 0.4 26.6
2014-Nov-22 19:00N 12°32' W 132°34'1 0.6 26.5
2014-Nov-22 18:00N 12°32' W 132°33'0 0.0 26.5
2014-Nov-22 17:00N 12°32' W 132°33'4 1.9 26.5
2014-Nov-22 15:00N 12°31' W 132°29'1 1.3 26.6
2014-Nov-22 14:00N 12°31' W 132°28'3 2.9 26.6
2014-Nov-22 13:00N 12°31' W 132°25'0 0.2 26.6
2014-Nov-22 12:00N 12°30' W 132°25'0 0.2 26.6
2014-Nov-22 11:00N 12°31' W 132°25'5 2.6 26.6
2014-Nov-22 09:00N 12°30' W 132°20'0 0.1 26.6
2014-Nov-22 07:00N 12°30' W 132°20'1 0.8 26.7
2014-Nov-22 06:00N 12°29' W 132°20'2 2.4 26.7
2014-Nov-22 05:00N 12°29' W 132°18'3 1.6 26.7
2014-Nov-22 03:00N 12°30' W 132°15'0 0.2 26.7
2014-Nov-22 02:00N 12°30' W 132°15'8 2.1 26.7
2014-Nov-21 22:00N 12°30' W 132°06'1 0.4 26.8
2014-Nov-21 19:00N 12°31' W 132°05'0 0.0 26.8
2014-Nov-21 18:00N 12°31' W 132°05'4 4.3 26.8
2014-Nov-21 17:00N 12°32' W 132°01'2 0.4 26.8
2014-Nov-21 13:00N 12°32' W 131°59'0 0.0 26.8
2014-Nov-21 11:00N 12°32' W 131°59'2 1.7 26.8
2014-Nov-21 10:00N 12°33' W 131°58'0 0.0 26.8
2014-Nov-21 09:00N 12°33' W 131°58'5 2.4 26.8
2014-Nov-21 07:00N 12°34' W 131°53'1 0.6 26.8
2014-Nov-21 06:00N 12°34' W 131°53'0 0.0 26.8
2014-Nov-21 05:00N 12°34' W 131°53'2 0.9 26.8
2014-Nov-21 03:00N 12°34' W 131°51'2 1.9 26.8
2014-Nov-21 02:00N 12°35' W 131°49'1 0.6 26.8
2014-Nov-21 01:00N 12°35' W 131°49'4 2.0 26.9
2014-Nov-20 23:00N 12°35' W 131°44'0 0.1 26.9
2014-Nov-20 21:00N 12°35' W 131°45'3 1.6 26.9
2014-Nov-20 19:00N 12°35' W 131°41'1 0.6 26.8
2014-Nov-20 18:00N 12°35' W 131°41'2 2.4 26.8
2014-Nov-20 17:00N 12°36' W 131°38'2 1.0 26.8
2014-Nov-20 15:00N 12°37' W 131°37'0 0.0 26.8
2014-Nov-20 14:00N 12°37' W 131°37'0 0.0 26.8
2014-Nov-20 13:00N 12°37' W 131°37'1 1.2 26.8
2014-Nov-20 12:00N 12°37' W 131°35'2 1.8 26.8
2014-Nov-20 11:00N 12°37' W 131°34'4 3.5 26.8
2014-Nov-20 10:00N 12°37' W 131°30'4 4.1 26.8
2014-Nov-20 09:00N 12°37' W 131°34'5 1.6 26.8
2014-Nov-20 06:00N 12°37' W 131°29'1 1.3 26.9
2014-Nov-20 05:00N 12°37' W 131°28'1 0.6 26.9
2014-Nov-20 04:00N 12°37' W 131°28'2 2.4 26.9
2014-Nov-20 03:00N 12°38' W 131°25'0 0.0 26.9
2014-Nov-20 02:00N 12°38' W 131°25'3 1.6 26.9
2014-Nov-20 00:00N 12°39' W 131°22'2 1.9 26.9
2014-Nov-19 23:00N 12°38' W 131°20'0 0.0 26.9
2014-Nov-19 21:00N 12°38' W 131°20'3 1.1 26.9
2014-Nov-19 18:00N 12°40' W 131°17'1 1.2 26.9
2014-Nov-19 17:00N 12°40' W 131°16'1 0.7 26.9
2014-Nov-19 15:00N 12°41' W 131°15'1 0.8 26.8
2014-Nov-19 14:00N 12°41' W 131°16'1 1.2 26.8
2014-Nov-19 13:00N 12°41' W 131°14'1 0.7 26.9
2014-Nov-19 12:00N 12°41' W 131°14'1 1.5 26.8
2014-Nov-19 11:00N 12°41' W 131°12'3 2.9 26.9
2014-Nov-19 10:00N 12°40' W 131°10'1 0.4 26.9
2014-Nov-19 07:00N 12°41' W 131°09'0 0.0 26.9
2014-Nov-19 06:00N 12°41' W 131°09'1 0.6 26.9
2014-Nov-19 05:00N 12°41' W 131°08'2 0.9 26.9
2014-Nov-19 03:00N 12°41' W 131°07'3 1.7 26.9
2014-Nov-19 01:00N 12°43' W 131°04'0 0.0 27.0
2014-Nov-19 00:00N 12°43' W 131°04'2 1.9 27.0
2014-Nov-18 23:00N 12°43' W 131°02'0 0.0 27.0
2014-Nov-18 21:00N 12°43' W 131°02'5 2.4 27.0
2014-Nov-18 19:00N 12°43' W 130°57'1 1.3 26.9
2014-Nov-18 18:00N 12°44' W 130°58'0 0.4 26.9
2014-Nov-18 17:00N 12°44' W 130°57'1 0.4 26.9
2014-Nov-18 14:00N 12°44' W 130°56'1 0.9 26.9
2014-Nov-18 13:00N 12°44' W 130°55'0 0.3 26.9
2014-Nov-18 12:00N 12°44' W 130°55'2 1.1 26.9
2014-Nov-18 10:00N 12°44' W 130°53'0 0.0 26.9
2014-Nov-18 06:00N 12°44' W 130°53'1 0.8 26.9
2014-Nov-18 05:00N 12°43' W 130°52'1 1.2 26.9
2014-Nov-18 04:00N 12°43' W 130°51'1 0.6 26.9
2014-Nov-18 03:00N 12°43' W 130°50'1 1.0 26.9
2014-Nov-18 02:00N 12°43' W 130°49'1 0.8 27.0
2014-Nov-18 01:00N 12°43' W 130°49'2 0.9 27.0
2014-Nov-17 23:00N 12°43' W 130°47'2 1.9 27.1
2014-Nov-17 22:00N 12°44' W 130°46'2 1.7 27.1
2014-Nov-17 21:00N 12°43' W 130°47'2 1.0 27.1
2014-Nov-17 19:00N 12°44' W 130°46'1 0.8 26.9
2014-Nov-17 18:00N 12°45' W 130°46'3 1.0 26.9
2014-Nov-17 15:00N 12°44' W 130°43'2 1.9 26.8
2014-Nov-17 14:00N 12°44' W 130°41'1 0.8 26.8
2014-Nov-17 13:00N 12°44' W 130°42'1 0.6 26.8
2014-Nov-17 12:00N 12°44' W 130°41'3 1.6 26.8
2014-Nov-17 10:00N 12°43' W 130°38'0 0.0 26.8
2014-Nov-17 07:00N 12°43' W 130°38'1 1.3 26.8
2014-Nov-17 06:00N 12°44' W 130°37'0 0.0 26.8
2014-Nov-17 05:00N 12°44' W 130°37'2 1.7 26.8
2014-Nov-17 04:00N 12°43' W 130°36'2 1.7 26.8
2014-Nov-17 03:00N 12°44' W 130°35'2 1.8 26.8
2014-Nov-17 02:00N 12°44' W 130°33'3 1.1 26.9
2014-Nov-16 23:00N 12°44' W 130°30'0 0.1 27.0
2014-Nov-16 22:00N 12°44' W 130°29'4 1.2 27.0
2014-Nov-16 19:00N 12°44' W 130°26'0 0.0 26.9
2014-Nov-16 18:00N 12°44' W 130°26'1 1.2 26.8
2014-Nov-16 17:00N 12°44' W 130°25'1 0.4 26.8
2014-Nov-16 15:00N 12°45' W 130°24'1 0.7 26.8
2014-Nov-16 14:00N 12°45' W 130°23'1 0.8 26.8
2014-Nov-16 13:00N 12°46' W 130°23'1 1.2 26.8
2014-Nov-16 12:00N 12°46' W 130°22'1 0.8 26.8
2014-Nov-16 11:00N 12°47' W 130°22'0 0.0 26.8
2014-Nov-16 10:00N 12°47' W 130°22'0 0.0 26.8
2014-Nov-16 07:00N 12°47' W 130°22'1 0.6 26.8
2014-Nov-16 06:00N 12°47' W 130°21'1 0.6 26.8
2014-Nov-16 05:00N 12°46' W 130°21'0 0.1 26.9
2014-Nov-16 04:00N 12°46' W 130°21'1 0.6 26.9
2014-Nov-16 02:00N 12°46' W 130°20'3 0.6 26.9
2014-Nov-15 22:00N 12°44' W 130°18'2 0.7 27.0
2014-Nov-15 19:00N 12°43' W 130°16'1 0.8 26.9
2014-Nov-15 18:00N 12°43' W 130°16'1 0.6 26.8
2014-Nov-15 17:00N 12°43' W 130°16'3 1.1 26.8
2014-Nov-15 14:00N 12°41' W 130°13'2 2.1 26.8
2014-Nov-15 13:00N 12°40' W 130°11'5 2.5 26.9
2014-Nov-15 11:00N 12°36' W 130°08'0 0.0 26.9
2014-Nov-15 09:00N 12°36' W 130°08'1 0.3 26.9
2014-Nov-15 06:00N 12°35' W 130°08'2 2.3 26.9
2014-Nov-15 05:00N 12°35' W 130°06'2 1.1 27.0
2014-Nov-15 03:00N 12°34' W 130°04'4 4.3 27.0
2014-Nov-15 02:00N 12°32' W 130°01'0 0.2 27.0
2014-Nov-15 01:00N 12°32' W 130°00'6 2.1 27.0
2014-Nov-14 22:00N 12°32' W 129°54'3 0.7 27.0
2014-Nov-14 18:00N 12°31' W 129°52'3 2.9 26.9
2014-Nov-14 17:00N 12°31' W 129°49'1 0.3 26.9
2014-Nov-14 15:00N 12°31' W 129°49'1 1.2 26.9
2014-Nov-14 14:00N 12°31' W 129°47'3 2.9 26.9
2014-Nov-14 13:00N 12°31' W 129°44'0 0.3 26.9
2014-Nov-14 12:00N 12°31' W 129°45'0 0.4 26.9
2014-Nov-14 11:00N 12°31' W 129°45'4 2.1 26.9
2014-Nov-14 09:00N 12°31' W 129°41'0 0.0 26.9
2014-Nov-14 07:00N 12°31' W 129°41'0 0.3 27.0
2014-Nov-14 06:00N 12°31' W 129°41'2 1.6 27.0
2014-Nov-14 05:00N 12°32' W 129°40'1 0.8 27.0
2014-Nov-14 04:00N 12°32' W 129°40'1 0.8 27.0
2014-Nov-14 03:00N 12°31' W 129°39'1 1.3 27.0
2014-Nov-14 02:00N 12°31' W 129°38'1 0.8 27.0
2014-Nov-14 01:00N 12°31' W 129°38'2 0.8 27.0
2014-Nov-13 22:00N 12°31' W 129°36'2 0.6 27.0
2014-Nov-13 19:00N 12°30' W 129°35'1 0.8 27.0
2014-Nov-13 18:00N 12°31' W 129°34'0 0.0 26.9
2014-Nov-13 17:00N 12°31' W 129°34'3 1.3 26.9
2014-Nov-13 15:00N 12°29' W 129°32'1 0.3 26.9
2014-Nov-13 13:00N 12°29' W 129°32'0 0.3 26.9
2014-Nov-13 12:00N 12°29' W 129°32'0 0.3 26.9
2014-Nov-13 11:00N 12°29' W 129°32'5 2.3 27.0
2014-Nov-13 09:00N 12°25' W 129°29'1 0.2 27.0
2014-Nov-13 06:00N 12°25' W 129°29'2 1.9 27.0
2014-Nov-13 05:00N 12°24' W 129°27'4 1.4 27.0
2014-Nov-13 02:00N 12°24' W 129°23'1 1.0 27.0
2014-Nov-13 01:00N 12°24' W 129°22'   27.0
Track history (hours):
 
Tides and Currents Weather Stations Pressure Air Temp Water Temp Dewpoint Dewpoint Depression Visibility Wind Speed Wind Dir Waves Ship Positions

Drifting buoy 43528

Last reported at 2014-Nov-23 00:00 UTC. Time now 2014-Nov-23 04:44 UTC.
Position N 12°33' W 132°37'.

Water temperature 26.5 ° C

Date/timePositionNaut miles runAvg speedWind from/ knotsBaromVisibWave heightAir tempDewpointWater temp
2014-Nov-23 00:00N 12°33' W 132°37'2 0.9 26.5
2014-Nov-22 22:00N 12°32' W 132°35'1 0.4 26.6
2014-Nov-22 19:00N 12°32' W 132°34'1 0.6 26.5
2014-Nov-22 18:00N 12°32' W 132°33'0 0.0 26.5
2014-Nov-22 17:00N 12°32' W 132°33'4 1.9 26.5
2014-Nov-22 15:00N 12°31' W 132°29'1 1.3 26.6
2014-Nov-22 14:00N 12°31' W 132°28'3 2.9 26.6
2014-Nov-22 13:00N 12°31' W 132°25'0 0.2 26.6
2014-Nov-22 12:00N 12°30' W 132°25'0 0.2 26.6
2014-Nov-22 11:00N 12°31' W 132°25'5 2.6 26.6
2014-Nov-22 09:00N 12°30' W 132°20'0 0.1 26.6
2014-Nov-22 07:00N 12°30' W 132°20'1 0.8 26.7
2014-Nov-22 06:00N 12°29' W 132°20'2 2.4 26.7
2014-Nov-22 05:00N 12°29' W 132°18'3 1.6 26.7
2014-Nov-22 03:00N 12°30' W 132°15'0 0.2 26.7
2014-Nov-22 02:00N 12°30' W 132°15'8 2.1 26.7
2014-Nov-21 22:00N 12°30' W 132°06'1 0.4 26.8
2014-Nov-21 19:00N 12°31' W 132°05'0 0.0 26.8
2014-Nov-21 18:00N 12°31' W 132°05'4 4.3 26.8
2014-Nov-21 17:00N 12°32' W 132°01'2 0.4 26.8
2014-Nov-21 13:00N 12°32' W 131°59'0 0.0 26.8
2014-Nov-21 11:00N 12°32' W 131°59'2 1.7 26.8
2014-Nov-21 10:00N 12°33' W 131°58'0 0.0 26.8
2014-Nov-21 09:00N 12°33' W 131°58'5 2.4 26.8
2014-Nov-21 07:00N 12°34' W 131°53'1 0.6 26.8
2014-Nov-21 06:00N 12°34' W 131°53'0 0.0 26.8
2014-Nov-21 05:00N 12°34' W 131°53'2 0.9 26.8
2014-Nov-21 03:00N 12°34' W 131°51'2 1.9 26.8
2014-Nov-21 02:00N 12°35' W 131°49'1 0.6 26.8
2014-Nov-21 01:00N 12°35' W 131°49'4 2.0 26.9
2014-Nov-20 23:00N 12°35' W 131°44'0 0.1 26.9
2014-Nov-20 21:00N 12°35' W 131°45'3 1.6 26.9
2014-Nov-20 19:00N 12°35' W 131°41'1 0.6 26.8
2014-Nov-20 18:00N 12°35' W 131°41'2 2.4 26.8
2014-Nov-20 17:00N 12°36' W 131°38'2 1.0 26.8
2014-Nov-20 15:00N 12°37' W 131°37'0 0.0 26.8
2014-Nov-20 14:00N 12°37' W 131°37'0 0.0 26.8
2014-Nov-20 13:00N 12°37' W 131°37'1 1.2 26.8
2014-Nov-20 12:00N 12°37' W 131°35'2 1.8 26.8
2014-Nov-20 11:00N 12°37' W 131°34'4 3.5 26.8
2014-Nov-20 10:00N 12°37' W 131°30'4 4.1 26.8
2014-Nov-20 09:00N 12°37' W 131°34'5 1.6 26.8
2014-Nov-20 06:00N 12°37' W 131°29'1 1.3 26.9
2014-Nov-20 05:00N 12°37' W 131°28'1 0.6 26.9
2014-Nov-20 04:00N 12°37' W 131°28'2 2.4 26.9
2014-Nov-20 03:00N 12°38' W 131°25'0 0.0 26.9
2014-Nov-20 02:00N 12°38' W 131°25'3 1.6 26.9
2014-Nov-20 00:00N 12°39' W 131°22'2 1.9 26.9
2014-Nov-19 23:00N 12°38' W 131°20'0 0.0 26.9
2014-Nov-19 21:00N 12°38' W 131°20'3 1.1 26.9
2014-Nov-19 18:00N 12°40' W 131°17'1 1.2 26.9
2014-Nov-19 17:00N 12°40' W 131°16'1 0.7 26.9
2014-Nov-19 15:00N 12°41' W 131°15'1 0.8 26.8
2014-Nov-19 14:00N 12°41' W 131°16'1 1.2 26.8
2014-Nov-19 13:00N 12°41' W 131°14'1 0.7 26.9
2014-Nov-19 12:00N 12°41' W 131°14'1 1.5 26.8
2014-Nov-19 11:00N 12°41' W 131°12'3 2.9 26.9
2014-Nov-19 10:00N 12°40' W 131°10'1 0.4 26.9
2014-Nov-19 07:00N 12°41' W 131°09'0 0.0 26.9
2014-Nov-19 06:00N 12°41' W 131°09'1 0.6 26.9
2014-Nov-19 05:00N 12°41' W 131°08'2 0.9 26.9
2014-Nov-19 03:00N 12°41' W 131°07'3 1.7 26.9
2014-Nov-19 01:00N 12°43' W 131°04'0 0.0 27.0
2014-Nov-19 00:00N 12°43' W 131°04'2 1.9 27.0
2014-Nov-18 23:00N 12°43' W 131°02'0 0.0 27.0
2014-Nov-18 21:00N 12°43' W 131°02'5 2.4 27.0
2014-Nov-18 19:00N 12°43' W 130°57'1 1.3 26.9
2014-Nov-18 18:00N 12°44' W 130°58'0 0.4 26.9
2014-Nov-18 17:00N 12°44' W 130°57'1 0.4 26.9
2014-Nov-18 14:00N 12°44' W 130°56'1 0.9 26.9
2014-Nov-18 13:00N 12°44' W 130°55'0 0.3 26.9
2014-Nov-18 12:00N 12°44' W 130°55'2 1.1 26.9
2014-Nov-18 10:00N 12°44' W 130°53'0 0.0 26.9
2014-Nov-18 06:00N 12°44' W 130°53'1 0.8 26.9
2014-Nov-18 05:00N 12°43' W 130°52'1 1.2 26.9
2014-Nov-18 04:00N 12°43' W 130°51'1 0.6 26.9
2014-Nov-18 03:00N 12°43' W 130°50'1 1.0 26.9
2014-Nov-18 02:00N 12°43' W 130°49'1 0.8 27.0
2014-Nov-18 01:00N 12°43' W 130°49'2 0.9 27.0
2014-Nov-17 23:00N 12°43' W 130°47'2 1.9 27.1
2014-Nov-17 22:00N 12°44' W 130°46'2 1.7 27.1
2014-Nov-17 21:00N 12°43' W 130°47'2 1.0 27.1
2014-Nov-17 19:00N 12°44' W 130°46'1 0.8 26.9
2014-Nov-17 18:00N 12°45' W 130°46'3 1.0 26.9
2014-Nov-17 15:00N 12°44' W 130°43'2 1.9 26.8
2014-Nov-17 14:00N 12°44' W 130°41'1 0.8 26.8
2014-Nov-17 13:00N 12°44' W 130°42'1 0.6 26.8
2014-Nov-17 12:00N 12°44' W 130°41'3 1.6 26.8
2014-Nov-17 10:00N 12°43' W 130°38'0 0.0 26.8
2014-Nov-17 07:00N 12°43' W 130°38'1 1.3 26.8
2014-Nov-17 06:00N 12°44' W 130°37'0 0.0 26.8
2014-Nov-17 05:00N 12°44' W 130°37'2 1.7 26.8
2014-Nov-17 04:00N 12°43' W 130°36'2 1.7 26.8
2014-Nov-17 03:00N 12°44' W 130°35'2 1.8 26.8
2014-Nov-17 02:00N 12°44' W 130°33'3 1.1 26.9
2014-Nov-16 23:00N 12°44' W 130°30'0 0.1 27.0
2014-Nov-16 22:00N 12°44' W 130°29'4 1.2 27.0
2014-Nov-16 19:00N 12°44' W 130°26'0 0.0 26.9
2014-Nov-16 18:00N 12°44' W 130°26'1 1.2 26.8
2014-Nov-16 17:00N 12°44' W 130°25'1 0.4 26.8
2014-Nov-16 15:00N 12°45' W 130°24'1 0.7 26.8
2014-Nov-16 14:00N 12°45' W 130°23'1 0.8 26.8
2014-Nov-16 13:00N 12°46' W 130°23'1 1.2 26.8
2014-Nov-16 12:00N 12°46' W 130°22'1 0.8 26.8
2014-Nov-16 11:00N 12°47' W 130°22'0 0.0 26.8
2014-Nov-16 10:00N 12°47' W 130°22'0 0.0 26.8
2014-Nov-16 07:00N 12°47' W 130°22'1 0.6 26.8
2014-Nov-16 06:00N 12°47' W 130°21'1 0.6 26.8
2014-Nov-16 05:00N 12°46' W 130°21'0 0.1 26.9
2014-Nov-16 04:00N 12°46' W 130°21'1 0.6 26.9
2014-Nov-16 02:00N 12°46' W 130°20'3 0.6 26.9
2014-Nov-15 22:00N 12°44' W 130°18'2 0.7 27.0
2014-Nov-15 19:00N 12°43' W 130°16'1 0.8 26.9
2014-Nov-15 18:00N 12°43' W 130°16'1 0.6 26.8
2014-Nov-15 17:00N 12°43' W 130°16'3 1.1 26.8
2014-Nov-15 14:00N 12°41' W 130°13'2 2.1 26.8
2014-Nov-15 13:00N 12°40' W 130°11'5 2.5 26.9
2014-Nov-15 11:00N 12°36' W 130°08'0 0.0 26.9
2014-Nov-15 09:00N 12°36' W 130°08'1 0.3 26.9
2014-Nov-15 06:00N 12°35' W 130°08'2 2.3 26.9
2014-Nov-15 05:00N 12°35' W 130°06'2 1.1 27.0
2014-Nov-15 03:00N 12°34' W 130°04'4 4.3 27.0
2014-Nov-15 02:00N 12°32' W 130°01'0 0.2 27.0
2014-Nov-15 01:00N 12°32' W 130°00'6 2.1 27.0
2014-Nov-14 22:00N 12°32' W 129°54'3 0.7 27.0
2014-Nov-14 18:00N 12°31' W 129°52'3 2.9 26.9
2014-Nov-14 17:00N 12°31' W 129°49'1 0.3 26.9
2014-Nov-14 15:00N 12°31' W 129°49'1 1.2 26.9
2014-Nov-14 14:00N 12°31' W 129°47'3 2.9 26.9
2014-Nov-14 13:00N 12°31' W 129°44'0 0.3 26.9
2014-Nov-14 12:00N 12°31' W 129°45'0 0.4 26.9
2014-Nov-14 11:00N 12°31' W 129°45'4 2.1 26.9
2014-Nov-14 09:00N 12°31' W 129°41'0 0.0 26.9
2014-Nov-14 07:00N 12°31' W 129°41'0 0.3 27.0
2014-Nov-14 06:00N 12°31' W 129°41'2 1.6 27.0
2014-Nov-14 05:00N 12°32' W 129°40'1 0.8 27.0
2014-Nov-14 04:00N 12°32' W 129°40'1 0.8 27.0
2014-Nov-14 03:00N 12°31' W 129°39'1 1.3 27.0
2014-Nov-14 02:00N 12°31' W 129°38'1 0.8 27.0
2014-Nov-14 01:00N 12°31' W 129°38'2 0.8 27.0
2014-Nov-13 22:00N 12°31' W 129°36'2 0.6 27.0
2014-Nov-13 19:00N 12°30' W 129°35'1 0.8 27.0
2014-Nov-13 18:00N 12°31' W 129°34'0 0.0 26.9
2014-Nov-13 17:00N 12°31' W 129°34'3 1.3 26.9
2014-Nov-13 15:00N 12°29' W 129°32'1 0.3 26.9
2014-Nov-13 13:00N 12°29' W 129°32'0 0.3 26.9
2014-Nov-13 12:00N 12°29' W 129°32'0 0.3 26.9
2014-Nov-13 11:00N 12°29' W 129°32'5 2.3 27.0
2014-Nov-13 09:00N 12°25' W 129°29'1 0.2 27.0
2014-Nov-13 06:00N 12°25' W 129°29'2 1.9 27.0
2014-Nov-13 05:00N 12°24' W 129°27'4 1.4 27.0
2014-Nov-13 02:00N 12°24' W 129°23'1 1.0 27.0
2014-Nov-13 01:00N 12°24' W 129°22'   27.0

Dump ship's entire track history